Lynnville, Indiana
Current Conditions -  °F | °C
As of 6:54 PM on Monday 22 Dec 2014 (Local Time) from KEVV Reporting Station
Moderate Rain Moderate Rain  
Wind Chill: 52°   Ceiling: 1800
Heat Index: 52°   Visibility: 5mi
Dew Point: 47°   Wind: 8mph
Humidity: 83%   Direction: 140°SE
Pressure: 29.65"   Gusts: NA
Location:  38.2°N, 87.3°W
Report Text: KEVV 230054Z 14007KT 5SM RA OVC018 11/08 A2965 RMK AO2 RAB21 SLP042 P0002 T01110083
Loading
Personal Weather Stations






























Interactive Weather Map New forecast layout! Learn more

10-Day Weather Forecast

Advertisements
Track Severe Weather on mobile